createdAt,value
2022-08-25T00:01:58.413Z,100.00
2022-08-25T00:04:25.766Z,100.00
2022-08-25T00:10:17.271Z,100.00
2022-08-25T00:10:41.906Z,100.00
2022-08-25T00:12:44.461Z,100.00
2022-08-25T00:15:11.484Z,100.00
2022-08-25T00:17:38.275Z,100.00
2022-08-25T00:20:06.781Z,100.00
2022-08-25T00:22:33.492Z,100.00
2022-08-25T00:25:00.345Z,100.00
2022-08-25T00:27:28.033Z,100.00
2022-08-25T00:29:54.767Z,100.00
2022-08-25T00:32:21.593Z,100.00
2022-08-25T00:34:48.378Z,100.00
2022-08-25T00:37:16.365Z,100.00
2022-08-25T00:39:43.119Z,100.00
2022-08-25T00:42:16.350Z,100.00
2022-08-25T00:44:44.075Z,100.00
2022-08-25T00:47:11.122Z,100.00
2022-08-25T00:49:45.876Z,100.00
2022-08-25T00:52:23.283Z,100.00
2022-08-25T00:54:54.656Z,100.00
2022-08-25T00:57:34.089Z,100.00
2022-08-25T01:00:05.688Z,100.00
2022-08-25T01:02:32.674Z,100.00
2022-08-25T01:04:59.789Z,100.00
2022-08-25T01:07:26.617Z,100.00
2022-08-25T01:09:54.037Z,100.00
2022-08-25T01:12:21.813Z,100.00
2022-08-25T01:14:50.349Z,100.00
2022-08-25T01:17:17.324Z,100.00
2022-08-25T01:19:44.381Z,100.00
2022-08-25T01:22:12.199Z,100.00
2022-08-25T01:25:02.198Z,100.00
2022-08-25T01:27:28.919Z,100.00
2022-08-25T01:29:56.312Z,100.00
2022-08-25T01:32:24.024Z,100.00
2022-08-25T01:34:51.842Z,100.00
2022-08-25T01:37:19.413Z,100.00
2022-08-25T01:39:46.824Z,100.00
2022-08-25T01:42:24.855Z,100.00
2022-08-25T01:44:51.647Z,100.00
2022-08-25T01:47:18.761Z,100.00
2022-08-25T01:49:45.561Z,100.00
2022-08-25T01:52:16.302Z,100.00
2022-08-25T01:54:43.451Z,100.00
2022-08-25T01:57:10.220Z,100.00
2022-08-25T01:59:37.194Z,100.00
2022-08-25T02:02:05.489Z,100.00
2022-08-25T02:04:33.143Z,100.00
2022-08-25T02:07:03.599Z,100.00
2022-08-25T02:09:30.867Z,100.00
2022-08-25T02:11:57.763Z,100.00
2022-08-25T02:14:24.649Z,100.00
2022-08-25T02:16:53.551Z,100.00
2022-08-25T02:19:22.729Z,100.00
2022-08-25T02:21:50.160Z,100.00
2022-08-25T02:24:17.122Z,100.00
2022-08-25T02:26:44.190Z,100.00
2022-08-25T02:29:11.628Z,100.00
2022-08-25T02:31:39.698Z,100.00
2022-08-25T02:34:07.394Z,100.00
2022-08-25T02:36:35.247Z,100.00
2022-08-25T02:39:04.153Z,100.00
2022-08-25T02:41:31.776Z,100.00
2022-08-25T02:44:00.568Z,100.00
2022-08-25T02:46:27.997Z,100.00
2022-08-25T02:48:55.400Z,100.00
2022-08-25T02:51:26.205Z,100.00
2022-08-25T02:53:53.248Z,100.00
2022-08-25T02:56:21.148Z,100.00
2022-08-25T02:58:48.584Z,100.00
2022-08-25T03:01:18.556Z,100.00
2022-08-25T03:03:47.861Z,100.00
2022-08-25T03:06:26.269Z,100.00
2022-08-25T03:08:55.202Z,100.00
2022-08-25T03:11:22.228Z,100.00
2022-08-25T03:13:51.759Z,100.00
2022-08-25T03:16:19.850Z,100.00
2022-08-25T03:18:48.622Z,100.00
2022-08-25T03:21:17.105Z,100.00
2022-08-25T03:23:45.012Z,100.00
2022-08-25T03:26:30.320Z,100.00
2022-08-25T03:28:57.496Z,100.00
2022-08-25T03:31:27.989Z,100.00
2022-08-25T03:33:55.311Z,100.00
2022-08-25T03:36:22.304Z,100.00
2022-08-25T03:38:49.084Z,100.00
2022-08-25T03:41:20.504Z,100.00
2022-08-25T03:43:48.879Z,100.00
2022-08-25T03:46:21.302Z,100.00
2022-08-25T03:48:49.177Z,100.00
2022-08-25T03:51:21.195Z,100.00
2022-08-25T03:53:48.239Z,100.00
2022-08-25T03:56:15.315Z,100.00
2022-08-25T03:58:42.153Z,100.00
2022-08-25T04:01:09.757Z,100.00
2022-08-25T04:03:39.637Z,100.00
2022-08-25T04:06:07.960Z,100.00
2022-08-25T04:08:35.649Z,100.00
2022-08-25T04:11:14.123Z,100.00
2022-08-25T04:13:45.878Z,100.00
2022-08-25T04:16:24.526Z,100.00
2022-08-25T04:18:53.707Z,100.00
2022-08-25T04:21:21.864Z,100.00
2022-08-25T04:23:50.644Z,100.00
2022-08-25T04:26:20.989Z,100.00
2022-08-25T04:28:48.262Z,100.00
2022-08-25T04:31:19.983Z,100.00
2022-08-25T04:33:49.805Z,100.00
2022-08-25T04:36:18.684Z,100.00
2022-08-25T04:38:47.004Z,100.00
2022-08-25T04:41:16.507Z,100.00
2022-08-25T04:43:44.890Z,100.00
2022-08-25T04:46:20.098Z,100.00
2022-08-25T04:48:51.901Z,100.00
2022-08-25T04:51:20.457Z,100.00
2022-08-25T04:53:47.352Z,100.00
2022-08-25T04:56:16.471Z,100.00
2022-08-25T04:58:43.447Z,100.00
2022-08-25T05:01:17.597Z,100.00
2022-08-25T05:03:52.244Z,100.00
2022-08-25T05:06:19.027Z,100.00
2022-08-25T05:08:46.300Z,100.00
2022-08-25T05:11:14.980Z,100.00
2022-08-25T05:13:43.944Z,100.00
2022-08-25T05:16:12.267Z,100.00
2022-08-25T05:18:39.332Z,100.00
2022-08-25T05:21:11.189Z,100.00
2022-08-25T05:23:38.785Z,100.00
2022-08-25T05:26:31.741Z,100.00
2022-08-25T05:28:59.927Z,100.00
2022-08-25T05:31:28.406Z,100.00
2022-08-25T05:33:55.933Z,100.00
2022-08-25T05:36:24.109Z,100.00
2022-08-25T05:38:53.004Z,100.00
2022-08-25T05:41:28.905Z,100.00
2022-08-25T05:43:56.070Z,100.00
2022-08-25T05:46:23.345Z,100.00
2022-08-25T05:48:50.843Z,100.00
2022-08-25T05:51:18.589Z,100.00
2022-08-25T05:53:47.853Z,100.00
2022-08-25T05:56:14.982Z,100.00
2022-08-25T05:58:43.372Z,100.00
2022-08-25T06:01:36.757Z,100.00
2022-08-25T06:04:03.855Z,100.00
2022-08-25T06:06:30.819Z,100.00
2022-08-25T06:08:57.593Z,100.00
2022-08-25T06:11:24.351Z,100.00
2022-08-25T06:13:51.087Z,100.00
2022-08-25T06:16:18.488Z,100.00
2022-08-25T06:18:45.911Z,100.00
2022-08-25T06:21:14.548Z,100.00
2022-08-25T06:23:41.726Z,100.00
2022-08-25T06:26:19.568Z,100.00
2022-08-25T06:28:49.049Z,100.00
2022-08-25T06:31:15.967Z,100.00
2022-08-25T06:33:43.669Z,100.00
2022-08-25T06:36:10.486Z,100.00
2022-08-25T06:38:37.265Z,100.00
2022-08-25T06:41:05.765Z,100.00
2022-08-25T06:43:33.510Z,100.00
2022-08-25T06:46:15.230Z,100.00
2022-08-25T06:48:42.102Z,100.00
2022-08-25T06:51:13.848Z,100.00
2022-08-25T06:53:42.459Z,100.00
2022-08-25T06:56:09.910Z,100.00
2022-08-25T06:58:37.839Z,100.00
2022-08-25T07:01:20.177Z,100.00
2022-08-25T07:03:48.055Z,100.00
2022-08-25T07:06:18.272Z,100.00
2022-08-25T07:08:48.811Z,100.00
2022-08-25T07:11:17.315Z,100.00
2022-08-25T07:13:45.700Z,100.00
2022-08-25T07:16:15.599Z,100.00
2022-08-25T07:18:42.797Z,100.00
2022-08-25T07:21:12.559Z,100.00
2022-08-25T07:23:40.801Z,100.00
2022-08-25T07:29:02.256Z,100.00
2022-08-25T07:31:30.294Z,100.00
2022-08-25T07:34:16.561Z,100.00
2022-08-25T07:36:43.965Z,100.00
2022-08-25T07:39:11.422Z,100.00
2022-08-25T07:41:40.778Z,100.00
2022-08-25T07:44:09.338Z,100.00
2022-08-25T07:46:36.368Z,100.00
2022-08-25T07:49:03.796Z,100.00
2022-08-25T07:51:30.695Z,100.00
2022-08-25T07:53:57.472Z,100.00
2022-08-25T07:56:24.331Z,100.00
2022-08-25T07:58:51.777Z,100.00
2022-08-25T08:01:21.652Z,100.00
2022-08-25T08:03:51.529Z,100.00
2022-08-25T08:06:22.589Z,93.78
2022-08-25T08:08:54.733Z,88.61
2022-08-25T08:11:27.435Z,88.68
2022-08-25T08:13:55.793Z,78.34
2022-08-25T08:16:24.830Z,66.70
2022-08-25T08:18:52.141Z,67.32
2022-08-25T08:21:25.580Z,66.51
2022-08-25T08:23:58.900Z,72.93
2022-08-25T08:26:48.224Z,76.39
2022-08-25T08:29:15.552Z,70.62
2022-08-25T08:31:48.654Z,64.45
2022-08-25T08:34:16.358Z,68.10
2022-08-25T08:36:43.337Z,68.84
2022-08-25T08:39:12.238Z,66.86
2022-08-25T08:42:19.768Z,61.28
2022-08-25T08:45:05.570Z,56.69
2022-08-25T08:47:52.806Z,54.70
2022-08-25T08:50:45.782Z,56.18
2022-08-25T08:53:40.287Z,57.41
2022-08-25T08:56:13.516Z,56.59
2022-08-25T08:58:52.622Z,54.95
2022-08-25T09:01:44.319Z,54.38
2022-08-25T09:04:26.320Z,56.95
2022-08-25T09:06:55.559Z,55.88
2022-08-25T09:09:35.569Z,56.73
2022-08-25T09:12:27.854Z,54.55
2022-08-25T09:15:20.574Z,58.07
2022-08-25T09:18:06.519Z,54.35
2022-08-25T09:20:52.339Z,56.64
2022-08-25T09:23:40.152Z,63.62
2022-08-25T09:26:19.752Z,66.40
2022-08-25T09:28:53.536Z,64.59
2022-08-25T09:31:30.020Z,69.29
2022-08-25T09:33:58.644Z,68.86
2022-08-25T09:36:27.097Z,70.59
2022-08-25T09:38:55.480Z,72.15
2022-08-25T09:41:43.557Z,71.00
2022-08-25T09:44:22.088Z,73.47
2022-08-25T09:47:18.178Z,69.97
2022-08-25T09:49:49.323Z,75.91
2022-08-25T09:52:22.616Z,80.84
2022-08-25T09:54:53.992Z,81.21
2022-08-25T09:57:46.927Z,74.45
2022-08-25T10:00:16.345Z,73.20
2022-08-25T10:03:00.402Z,75.37
2022-08-25T10:05:35.645Z,70.70
2022-08-25T10:08:11.418Z,70.81
2022-08-25T10:10:46.110Z,67.16
2022-08-25T10:13:22.938Z,67.49
2022-08-25T10:16:20.533Z,68.84
2022-08-25T10:19:20.853Z,70.29
2022-08-25T10:22:04.157Z,68.21
2022-08-25T10:24:31.639Z,67.10
2022-08-25T10:27:04.826Z,63.83
2022-08-25T10:29:53.846Z,63.88
2022-08-25T10:32:58.466Z,63.97
2022-08-25T10:35:59.083Z,65.32
2022-08-25T10:38:27.242Z,63.61
2022-08-25T10:41:32.919Z,64.36
2022-08-25T10:44:40.118Z,58.78
2022-08-25T10:47:26.106Z,62.96
2022-08-25T10:50:20.457Z,60.36
2022-08-25T10:53:22.906Z,59.32
2022-08-25T10:56:13.405Z,60.27
2022-08-25T10:59:06.421Z,62.46
2022-08-25T11:01:45.710Z,61.04
2022-08-25T11:04:34.039Z,62.55
2022-08-25T11:07:22.342Z,61.80
2022-08-25T11:09:55.124Z,60.24
2022-08-25T11:12:36.381Z,58.90
2022-08-25T11:15:10.140Z,57.66
2022-08-25T11:17:55.164Z,55.66
2022-08-25T11:20:28.576Z,56.80
2022-08-25T11:23:17.437Z,56.69
2022-08-25T11:25:53.641Z,58.86
2022-08-25T11:28:35.563Z,59.66
2022-08-25T11:31:04.387Z,60.29
2022-08-25T11:33:32.635Z,58.29
2022-08-25T11:36:13.043Z,58.08
2022-08-25T11:38:58.418Z,56.25
2022-08-25T11:42:03.292Z,58.45
2022-08-25T11:44:59.335Z,58.31
2022-08-25T11:47:32.594Z,55.21
2022-08-25T11:50:04.487Z,54.83
2022-08-25T11:52:34.714Z,57.11
2022-08-25T11:55:13.709Z,54.46
2022-08-25T11:57:42.898Z,58.06
2022-08-25T12:00:15.108Z,60.36
2022-08-25T12:02:50.736Z,61.95
2022-08-25T12:05:17.606Z,60.46
2022-08-25T12:07:47.510Z,58.46
2022-08-25T12:10:26.173Z,58.46
2022-08-25T12:13:00.412Z,61.01
2022-08-25T12:15:42.080Z,59.22
2022-08-25T12:18:34.719Z,58.24
2022-08-25T12:21:02.501Z,56.29
2022-08-25T12:23:44.965Z,57.42
2022-08-25T12:26:51.416Z,56.24
2022-08-25T12:29:45.106Z,59.90
2022-08-25T12:32:30.779Z,56.38
2022-08-25T12:35:37.501Z,55.56
2022-08-25T12:38:11.201Z,56.96
2022-08-25T12:40:43.973Z,55.76
2022-08-25T12:43:40.379Z,55.20
2022-08-25T12:46:25.951Z,57.44
2022-08-25T12:49:04.953Z,53.41
2022-08-25T12:51:41.203Z,53.85
2022-08-25T12:54:36.524Z,56.28
2022-08-25T12:57:19.743Z,55.43
2022-08-25T12:59:59.628Z,54.32
2022-08-25T13:02:55.324Z,52.59
2022-08-25T13:06:01.360Z,56.11
2022-08-25T13:08:53.978Z,57.56
2022-08-25T13:11:48.143Z,57.93
2022-08-25T13:14:38.432Z,59.19
2022-08-25T13:17:06.719Z,58.53
2022-08-25T13:19:34.604Z,59.12
2022-08-25T13:22:15.906Z,57.33
2022-08-25T13:24:47.485Z,56.47
2022-08-25T13:27:25.111Z,58.33
2022-08-25T13:30:03.986Z,58.15
2022-08-25T13:32:38.358Z,56.13
2022-08-25T13:35:32.102Z,58.88
2022-08-25T13:38:19.673Z,55.26
2022-08-25T13:40:46.700Z,54.84
2022-08-25T13:43:15.269Z,54.61
2022-08-25T13:45:47.726Z,55.19
2022-08-25T13:48:49.855Z,55.14
2022-08-25T13:51:23.170Z,56.07
2022-08-25T13:53:54.836Z,57.76
2022-08-25T13:56:26.127Z,59.35
2022-08-25T13:58:57.054Z,57.96
2022-08-25T14:01:48.355Z,56.54
2022-08-25T14:04:20.562Z,54.81
2022-08-25T14:06:47.907Z,55.21
2022-08-25T14:09:18.438Z,57.62
2022-08-25T14:11:58.721Z,59.73
2022-08-25T14:14:25.446Z,58.82
2022-08-25T14:17:04.957Z,55.83
2022-08-25T14:19:47.758Z,56.94
2022-08-25T14:22:14.848Z,55.12
2022-08-25T14:24:41.752Z,57.92
2022-08-25T14:27:08.522Z,55.57
2022-08-25T14:29:41.059Z,55.47
2022-08-25T14:32:09.944Z,55.90
2022-08-25T14:34:38.755Z,55.14
2022-08-25T14:37:13.537Z,57.03
2022-08-25T14:39:42.713Z,58.22
2022-08-25T14:42:11.882Z,58.66
2022-08-25T14:44:38.898Z,57.10
2022-08-25T14:47:07.703Z,54.64
2022-08-25T14:49:40.701Z,52.04
2022-08-25T14:52:22.470Z,53.34
2022-08-25T14:54:49.570Z,52.50
2022-08-25T14:57:16.747Z,53.11
2022-08-25T14:59:43.539Z,54.37
2022-08-25T15:02:14.309Z,54.97
2022-08-25T15:04:48.982Z,53.15
2022-08-25T15:07:37.256Z,53.36
2022-08-25T15:10:07.850Z,52.58
2022-08-25T15:12:46.783Z,50.52
2022-08-25T15:15:14.584Z,54.67
2022-08-25T15:17:44.630Z,51.85
2022-08-25T15:20:12.338Z,51.92
2022-08-25T15:22:39.631Z,51.83
2022-08-25T15:25:09.087Z,51.09
2022-08-25T15:27:36.893Z,52.23
2022-08-25T15:30:05.431Z,55.95
2022-08-25T15:32:32.558Z,54.07
2022-08-25T15:35:00.538Z,53.67
2022-08-25T15:37:28.049Z,52.89
2022-08-25T15:39:55.535Z,51.34
2022-08-25T15:42:22.913Z,50.44
2022-08-25T15:44:53.413Z,52.72
2022-08-25T15:47:21.289Z,51.56
2022-08-25T15:49:48.174Z,51.76
2022-08-25T15:52:15.483Z,50.75
2022-08-25T15:54:42.278Z,53.08
2022-08-25T15:57:24.354Z,52.15
2022-08-25T15:59:53.215Z,53.14
2022-08-25T16:02:20.774Z,54.76
2022-08-25T16:04:47.700Z,56.28
2022-08-25T16:07:14.527Z,56.21
2022-08-25T16:09:41.826Z,56.36
2022-08-25T16:12:08.978Z,56.94
2022-08-25T16:14:38.137Z,58.87
2022-08-25T16:17:05.823Z,58.02
2022-08-25T16:19:32.853Z,59.68
2022-08-25T16:22:00.791Z,58.71
2022-08-25T16:24:27.704Z,60.86
2022-08-25T16:26:55.887Z,61.01
2022-08-25T16:29:23.638Z,60.77
2022-08-25T16:31:54.818Z,62.54
2022-08-25T16:34:24.562Z,63.37
2022-08-25T16:36:52.657Z,64.61
2022-08-25T16:39:20.948Z,64.39
2022-08-25T16:41:48.069Z,64.31
2022-08-25T16:44:15.216Z,65.68
2022-08-25T16:46:44.296Z,68.64
2022-08-25T16:49:12.608Z,72.10
2022-08-25T16:51:40.169Z,72.92
2022-08-25T16:54:28.048Z,73.14
2022-08-25T16:56:55.697Z,74.76
2022-08-25T16:59:23.800Z,75.11
2022-08-25T17:01:52.371Z,76.33
2022-08-25T17:04:20.409Z,77.31
2022-08-25T17:06:49.633Z,78.84
2022-08-25T17:09:22.846Z,79.74
2022-08-25T17:11:54.212Z,80.35
2022-08-25T17:14:21.454Z,81.61
2022-08-25T17:16:50.649Z,82.06
2022-08-25T17:19:18.630Z,83.85
2022-08-25T17:21:49.898Z,83.77
2022-08-25T17:24:17.310Z,84.36
2022-08-25T17:26:52.252Z,85.76
2022-08-25T17:29:19.534Z,86.75
2022-08-25T17:31:48.466Z,88.78
2022-08-25T17:34:16.217Z,89.23
2022-08-25T17:36:43.528Z,89.41
2022-08-25T17:39:14.288Z,90.38
2022-08-25T17:41:43.177Z,91.18
2022-08-25T17:44:10.029Z,93.05
2022-08-25T17:46:36.947Z,95.88
2022-08-25T17:49:04.436Z,96.63
2022-08-25T17:51:32.016Z,97.83
2022-08-25T17:53:59.234Z,98.36
2022-08-25T17:56:27.336Z,99.23
2022-08-25T17:58:55.963Z,99.16
2022-08-25T18:01:26.487Z,99.50
2022-08-25T18:03:54.567Z,100.00
2022-08-25T18:06:23.758Z,100.00
2022-08-25T18:08:53.638Z,100.00
2022-08-25T18:11:24.792Z,100.00
2022-08-25T18:13:53.941Z,100.00
2022-08-25T18:16:21.575Z,100.00
2022-08-25T18:18:48.762Z,100.00
2022-08-25T18:21:18.193Z,100.00
2022-08-25T18:23:45.750Z,100.00
2022-08-25T18:26:14.767Z,100.00
2022-08-25T18:28:43.830Z,100.00
2022-08-25T18:31:13.246Z,100.00
2022-08-25T18:33:42.265Z,100.00
2022-08-25T18:36:10.028Z,100.00
2022-08-25T18:38:57.916Z,100.00
2022-08-25T18:41:26.341Z,100.00
2022-08-25T18:43:53.421Z,100.00
2022-08-25T18:46:22.737Z,100.00
2022-08-25T18:48:52.757Z,100.00
2022-08-25T18:51:23.251Z,100.00
2022-08-25T18:53:54.431Z,100.00
2022-08-25T18:56:26.146Z,100.00
2022-08-25T18:58:52.964Z,100.00
2022-08-25T19:01:20.776Z,100.00
2022-08-25T19:03:48.427Z,100.00
2022-08-25T19:06:16.169Z,100.00
2022-08-25T19:08:43.941Z,100.00
2022-08-25T19:11:11.129Z,100.00
2022-08-25T19:13:40.318Z,100.00
2022-08-25T19:16:30.267Z,100.00
2022-08-25T19:18:58.346Z,100.00
2022-08-25T19:21:25.712Z,100.00
2022-08-25T19:23:53.635Z,100.00
2022-08-25T19:26:21.442Z,100.00
2022-08-25T19:28:49.428Z,100.00
2022-08-25T19:31:23.060Z,100.00
2022-08-25T19:33:51.874Z,100.00
2022-08-25T19:36:22.965Z,100.00
2022-08-25T19:38:52.522Z,100.00
2022-08-25T19:41:20.702Z,100.00
2022-08-25T19:43:56.963Z,100.00
2022-08-25T19:46:35.433Z,100.00
2022-08-25T19:49:08.516Z,100.00
2022-08-25T19:51:37.648Z,100.00
2022-08-25T19:54:05.862Z,100.00
2022-08-25T19:56:36.356Z,100.00
2022-08-25T19:59:04.285Z,100.00
2022-08-25T20:01:32.070Z,100.00
2022-08-25T20:03:58.944Z,100.00
2022-08-25T20:06:27.699Z,100.00
2022-08-25T20:09:00.296Z,100.00
2022-08-25T20:11:29.259Z,100.00
2022-08-25T20:14:00.454Z,100.00
2022-08-25T20:16:30.762Z,100.00
2022-08-25T20:18:58.759Z,100.00
2022-08-25T20:21:26.111Z,100.00
2022-08-25T20:24:11.445Z,100.00
2022-08-25T20:26:38.793Z,100.00
2022-08-25T20:29:11.153Z,100.00
2022-08-25T20:31:39.500Z,100.00
2022-08-25T20:34:07.187Z,100.00
2022-08-25T20:36:35.288Z,100.00
2022-08-25T20:39:03.762Z,100.00
2022-08-25T20:41:33.419Z,100.00
2022-08-25T20:44:03.958Z,100.00
2022-08-25T20:46:35.811Z,100.00
2022-08-25T20:49:04.968Z,100.00
2022-08-25T20:51:32.011Z,100.00
2022-08-25T20:53:59.607Z,100.00
2022-08-25T20:56:29.894Z,100.00
2022-08-25T20:58:56.708Z,100.00
2022-08-25T21:01:40.980Z,100.00
2022-08-25T21:04:14.420Z,100.00
2022-08-25T21:06:42.344Z,100.00
2022-08-25T21:09:15.893Z,100.00
2022-08-25T21:11:45.101Z,100.00
2022-08-25T21:14:13.173Z,100.00
2022-08-25T21:16:41.850Z,100.00
2022-08-25T21:19:10.999Z,100.00
2022-08-25T21:21:38.584Z,100.00
2022-08-25T21:24:09.701Z,100.00
2022-08-25T21:26:48.415Z,100.00
2022-08-25T21:29:16.732Z,100.00
2022-08-25T21:31:43.920Z,100.00
2022-08-25T21:34:11.941Z,100.00
2022-08-25T21:36:39.209Z,100.00
2022-08-25T21:39:06.537Z,100.00
2022-08-25T21:41:35.618Z,100.00
2022-08-25T21:44:04.509Z,100.00
2022-08-25T21:46:32.664Z,100.00
2022-08-25T21:49:01.425Z,100.00
2022-08-25T21:51:44.722Z,100.00
2022-08-25T21:54:14.935Z,100.00
2022-08-25T21:56:59.677Z,100.00
2022-08-25T21:59:30.164Z,100.00
2022-08-25T22:01:59.166Z,100.00
2022-08-25T22:04:27.096Z,100.00
2022-08-25T22:06:53.945Z,100.00
2022-08-25T22:09:21.167Z,100.00
2022-08-25T22:11:48.162Z,100.00
2022-08-25T22:14:15.115Z,100.00
2022-08-25T22:16:42.827Z,100.00
2022-08-25T22:19:11.868Z,100.00
2022-08-25T22:21:41.620Z,100.00
2022-08-25T22:24:09.043Z,100.00
2022-08-25T22:26:36.243Z,100.00
2022-08-25T22:29:04.810Z,100.00
2022-08-25T22:31:33.881Z,100.00
2022-08-25T22:34:01.146Z,100.00
2022-08-25T22:36:32.740Z,100.00
2022-08-25T22:39:00.167Z,100.00
2022-08-25T22:41:29.251Z,100.00
2022-08-25T22:43:56.979Z,100.00
2022-08-25T22:46:27.869Z,100.00
2022-08-25T22:48:56.243Z,100.00
2022-08-25T22:51:27.019Z,100.00
2022-08-25T22:53:54.846Z,100.00
2022-08-25T22:56:31.107Z,100.00
2022-08-25T22:58:59.150Z,100.00
2022-08-25T23:01:26.156Z,100.00
2022-08-25T23:03:52.809Z,100.00
2022-08-25T23:06:24.997Z,100.00
2022-08-25T23:08:53.676Z,100.00
2022-08-25T23:11:22.300Z,100.00
2022-08-25T23:13:49.801Z,100.00
2022-08-25T23:16:17.863Z,100.00
2022-08-25T23:18:47.609Z,100.00
2022-08-25T23:21:35.028Z,100.00
2022-08-25T23:24:05.694Z,100.00
2022-08-25T23:26:36.550Z,100.00
2022-08-25T23:29:07.334Z,100.00
2022-08-25T23:31:45.208Z,100.00
2022-08-25T23:34:12.128Z,100.00
2022-08-25T23:36:40.531Z,100.00
2022-08-25T23:39:07.815Z,100.00
2022-08-25T23:41:36.866Z,100.00
2022-08-25T23:44:05.694Z,100.00
2022-08-25T23:46:35.266Z,100.00
2022-08-25T23:49:08.193Z,100.00
2022-08-25T23:51:38.409Z,100.00
